sensor_id;sensor_type;location;lat;lon;timestamp;pressure;altitude;pressure_sealevel;temperature;humidity
4024;BME280;2026;51.002;13.668;2023-06-22T00:02:31;99309.31;;;21.21;87.81
4024;BME280;2026;51.002;13.668;2023-06-22T00:07:36;99317.31;;;21.21;88.09
4024;BME280;2026;51.002;13.668;2023-06-22T00:12:39;99320.59;;;21.07;88.74
4024;BME280;2026;51.002;13.668;2023-06-22T00:17:42;99323.28;;;21.02;88.57
4024;BME280;2026;51.002;13.668;2023-06-22T00:22:46;99336.13;;;20.95;88.99
4024;BME280;2026;51.002;13.668;2023-06-22T00:27:49;99344.66;;;20.86;89.38
4024;BME280;2026;51.002;13.668;2023-06-22T00:32:52;99338.81;;;20.79;90.11
4024;BME280;2026;51.002;13.668;2023-06-22T00:37:58;99334.56;;;20.73;90.23
4024;BME280;2026;51.002;13.668;2023-06-22T00:43:03;99326.56;;;20.73;90.72
4024;BME280;2026;51.002;13.668;2023-06-22T00:48:07;99331.41;;;20.66;90.81
4024;BME280;2026;51.002;13.668;2023-06-22T00:53:12;99324.53;;;20.54;91.31
4024;BME280;2026;51.002;13.668;2023-06-22T00:58:15;99330.63;;;20.55;91.40
4024;BME280;2026;51.002;13.668;2023-06-22T01:03:18;99323.19;;;20.41;92.06
4024;BME280;2026;51.002;13.668;2023-06-22T01:08:30;99322.41;;;20.41;91.89
4024;BME280;2026;51.002;13.668;2023-06-22T01:13:37;99325.59;;;20.38;92.01
4024;BME280;2026;51.002;13.668;2023-06-22T01:18:43;99317.13;;;20.30;92.17
4024;BME280;2026;51.002;13.668;2023-06-22T01:24:11;99316.88;;;20.16;92.60
4024;BME280;2026;51.002;13.668;2023-06-22T01:29:20;99323.81;;;20.07;92.66
4024;BME280;2026;51.002;13.668;2023-06-22T01:34:24;99321.41;;;20.11;92.39
4024;BME280;2026;51.002;13.668;2023-06-22T01:39:29;99320.59;;;20.10;91.80
4024;BME280;2026;51.002;13.668;2023-06-22T01:44:34;99323.03;;;20.01;92.82
4024;BME280;2026;51.002;13.668;2023-06-22T01:49:37;99325.13;;;19.99;92.23
4024;BME280;2026;51.002;13.668;2023-06-22T01:54:40;99324.59;;;19.71;95.09
4024;BME280;2026;51.002;13.668;2023-06-22T01:59:48;99318.47;;;19.71;94.73
4024;BME280;2026;51.002;13.668;2023-06-22T02:04:56;99316.09;;;19.69;94.63
4024;BME280;2026;51.002;13.668;2023-06-22T02:10:02;99315.00;;;19.60;94.86
4024;BME280;2026;51.002;13.668;2023-06-22T02:15:10;99299.59;;;19.62;94.26
4024;BME280;2026;51.002;13.668;2023-06-22T02:20:14;99301.69;;;19.44;96.06
4024;BME280;2026;51.002;13.668;2023-06-22T02:25:17;99309.69;;;19.44;95.14
4024;BME280;2026;51.002;13.668;2023-06-22T02:30:22;99307.00;;;19.39;95.48
4024;BME280;2026;51.002;13.668;2023-06-22T02:35:25;99307.81;;;19.55;94.14
4024;BME280;2026;51.002;13.668;2023-06-22T02:40:32;99317.34;;;19.30;95.58
4024;BME280;2026;51.002;13.668;2023-06-22T02:45:37;99333.88;;;19.43;95.71
4024;BME280;2026;51.002;13.668;2023-06-22T02:50:40;99334.09;;;19.26;96.76
4024;BME280;2026;51.002;13.668;2023-06-22T02:55:43;99329.88;;;19.40;95.68
4024;BME280;2026;51.002;13.668;2023-06-22T03:00:47;99319.72;;;19.27;95.83
4024;BME280;2026;51.002;13.668;2023-06-22T03:05:54;99327.19;;;19.30;96.27
4024;BME280;2026;51.002;13.668;2023-06-22T03:10:58;99323.47;;;19.36;95.80
4024;BME280;2026;51.002;13.668;2023-06-22T03:16:03;99317.63;;;19.39;95.04
4024;BME280;2026;51.002;13.668;2023-06-22T03:21:06;99295.00;;;19.31;96.16
4024;BME280;2026;51.002;13.668;2023-06-22T03:26:09;99282.03;;;19.45;94.90
4024;BME280;2026;51.002;13.668;2023-06-22T03:31:14;99284.16;;;19.64;94.12
4024;BME280;2026;51.002;13.668;2023-06-22T03:36:17;99290.53;;;19.84;93.25
4024;BME280;2026;51.002;13.668;2023-06-22T03:41:21;99292.66;;;20.13;91.52
4024;BME280;2026;51.002;13.668;2023-06-22T03:46:25;99294.00;;;19.69;94.50
4024;BME280;2026;51.002;13.668;2023-06-22T03:51:30;99299.22;;;21.18;87.33
4024;BME280;2026;51.002;13.668;2023-06-22T03:56:33;99300.91;;;22.61;79.50
4024;BME280;2026;51.002;13.668;2023-06-22T04:01:37;99298.97;;;22.18;80.92
4024;BME280;2026;51.002;13.668;2023-06-22T04:06:40;99311.00;;;22.40;80.01
4024;BME280;2026;51.002;13.668;2023-06-22T04:11:43;99313.38;;;22.17;81.33
4024;BME280;2026;51.002;13.668;2023-06-22T04:16:48;99320.06;;;23.12;77.58
4024;BME280;2026;51.002;13.668;2023-06-22T04:21:51;99325.81;;;22.81;78.34
4024;BME280;2026;51.002;13.668;2023-06-22T04:26:54;99315.78;;;23.69;74.81
4024;BME280;2026;51.002;13.668;2023-06-22T04:31:58;99319.25;;;24.17;72.83
4024;BME280;2026;51.002;13.668;2023-06-22T04:37:06;99323.06;;;24.30;73.43
4024;BME280;2026;51.002;13.668;2023-06-22T04:42:09;99336.94;;;25.02;70.23
4024;BME280;2026;51.002;13.668;2023-06-22T04:47:14;99358.00;;;24.66;71.90
4024;BME280;2026;51.002;13.668;2023-06-22T04:52:17;99370.81;;;25.48;67.68
4024;BME280;2026;51.002;13.668;2023-06-22T04:57:22;99371.50;;;24.89;69.90
4024;BME280;2026;51.002;13.668;2023-06-22T05:02:35;99386.81;;;24.61;70.68
4024;BME280;2026;51.002;13.668;2023-06-22T05:07:40;99392.06;;;24.19;74.34
4024;BME280;2026;51.002;13.668;2023-06-22T05:12:45;99404.00;;;25.52;68.07
4024;BME280;2026;51.002;13.668;2023-06-22T05:17:50;99409.69;;;25.88;67.55
4024;BME280;2026;51.002;13.668;2023-06-22T05:22:53;99413.03;;;25.06;71.15
4024;BME280;2026;51.002;13.668;2023-06-22T05:27:56;99412.91;;;24.55;71.36
4024;BME280;2026;51.002;13.668;2023-06-22T05:33:00;99394.50;;;25.69;67.64
4024;BME280;2026;51.002;13.668;2023-06-22T05:38:03;99386.56;;;26.32;63.87
4024;BME280;2026;51.002;13.668;2023-06-22T05:43:06;99389.53;;;27.29;63.12
4024;BME280;2026;51.002;13.668;2023-06-22T05:48:10;99396.03;;;27.73;61.59
4024;BME280;2026;51.002;13.668;2023-06-22T05:53:13;99394.28;;;27.86;59.95
4024;BME280;2026;51.002;13.668;2023-06-22T05:58:16;99387.31;;;27.76;60.23
4024;BME280;2026;51.002;13.668;2023-06-22T06:03:21;99390.63;;;27.73;59.12
4024;BME280;2026;51.002;13.668;2023-06-22T06:08:25;99376.69;;;27.97;58.95
4024;BME280;2026;51.002;13.668;2023-06-22T06:13:28;99378.41;;;28.49;57.49
4024;BME280;2026;51.002;13.668;2023-06-22T06:18:32;99352.00;;;29.24;56.85
4024;BME280;2026;51.002;13.668;2023-06-22T06:23:35;99331.06;;;27.74;61.02
4024;BME280;2026;51.002;13.668;2023-06-22T06:28:38;99240.84;;;26.97;65.70
4024;BME280;2026;51.002;13.668;2023-06-22T06:33:42;99257.78;;;26.89;65.34
4024;BME280;2026;51.002;13.668;2023-06-22T06:38:45;99288.97;;;27.17;64.96
4024;BME280;2026;51.002;13.668;2023-06-22T06:43:49;99286.72;;;25.85;68.59
4024;BME280;2026;51.002;13.668;2023-06-22T06:48:53;99273.06;;;27.77;64.02
4024;BME280;2026;51.002;13.668;2023-06-22T06:53:56;99278.44;;;27.77;61.86
4024;BME280;2026;51.002;13.668;2023-06-22T06:58:59;99284.56;;;27.47;63.23
4024;BME280;2026;51.002;13.668;2023-06-22T07:04:03;99281.81;;;27.56;62.47
4024;BME280;2026;51.002;13.668;2023-06-22T07:09:07;99282.84;;;28.89;58.13
4024;BME280;2026;51.002;13.668;2023-06-22T07:14:10;99289.78;;;28.09;60.08
4024;BME280;2026;51.002;13.668;2023-06-22T07:19:15;99287.25;;;28.43;59.79
4024;BME280;2026;51.002;13.668;2023-06-22T07:24:18;99294.28;;;29.29;56.85
4024;BME280;2026;51.002;13.668;2023-06-22T07:29:22;99286.25;;;30.37;56.37
4024;BME280;2026;51.002;13.668;2023-06-22T07:34:26;99293.88;;;29.18;56.80
4024;BME280;2026;51.002;13.668;2023-06-22T07:39:29;99282.44;;;28.57;59.73
4024;BME280;2026;51.002;13.668;2023-06-22T07:44:32;99287.78;;;29.30;56.75
4024;BME280;2026;51.002;13.668;2023-06-22T07:49:36;99295.94;;;28.48;58.74
4024;BME280;2026;51.002;13.668;2023-06-22T07:54:39;99298.44;;;30.31;54.05
4024;BME280;2026;51.002;13.668;2023-06-22T07:59:42;99290.66;;;30.54;54.36
4024;BME280;2026;51.002;13.668;2023-06-22T08:04:46;99291.25;;;31.30;51.62
4024;BME280;2026;51.002;13.668;2023-06-22T08:09:49;99285.41;;;30.87;52.49
4024;BME280;2026;51.002;13.668;2023-06-22T08:14:52;99297.75;;;29.97;54.54
4024;BME280;2026;51.002;13.668;2023-06-22T08:19:57;99286.16;;;31.12;51.39
4024;BME280;2026;51.002;13.668;2023-06-22T08:24:59;99285.50;;;31.47;50.71
4024;BME280;2026;51.002;13.668;2023-06-22T08:30:03;99277.59;;;30.32;53.15
4024;BME280;2026;51.002;13.668;2023-06-22T08:35:08;99273.72;;;29.37;54.27
4024;BME280;2026;51.002;13.668;2023-06-22T08:40:11;99271.16;;;29.99;53.78
4024;BME280;2026;51.002;13.668;2023-06-22T08:45:15;99263.84;;;30.90;52.69
4024;BME280;2026;51.002;13.668;2023-06-22T08:50:19;99267.72;;;31.78;50.22
4024;BME280;2026;51.002;13.668;2023-06-22T08:55:22;99266.44;;;32.04;48.75
4024;BME280;2026;51.002;13.668;2023-06-22T09:00:25;99267.06;;;31.82;47.53
4024;BME280;2026;51.002;13.668;2023-06-22T09:05:32;99255.69;;;30.74;51.03
4024;BME280;2026;51.002;13.668;2023-06-22T09:10:35;99261.59;;;30.92;50.30
4024;BME280;2026;51.002;13.668;2023-06-22T09:15:38;99248.63;;;31.27;49.89
4024;BME280;2026;51.002;13.668;2023-06-22T09:20:42;99249.91;;;31.77;49.45
4024;BME280;2026;51.002;13.668;2023-06-22T09:25:45;99249.81;;;31.01;49.89
4024;BME280;2026;51.002;13.668;2023-06-22T09:30:49;99241.16;;;31.23;50.23
4024;BME280;2026;51.002;13.668;2023-06-22T09:35:53;99235.47;;;31.13;49.17
4024;BME280;2026;51.002;13.668;2023-06-22T09:40:57;99233.88;;;30.83;49.76
4024;BME280;2026;51.002;13.668;2023-06-22T09:46:00;99229.44;;;30.62;50.48
4024;BME280;2026;51.002;13.668;2023-06-22T09:51:05;99217.88;;;29.87;52.41
4024;BME280;2026;51.002;13.668;2023-06-22T09:56:09;99214.72;;;30.76;49.82
4024;BME280;2026;51.002;13.668;2023-06-22T10:01:16;99228.97;;;30.60;51.05
4024;BME280;2026;51.002;13.668;2023-06-22T10:06:20;99215.31;;;30.69;50.61
4024;BME280;2026;51.002;13.668;2023-06-22T10:11:23;99213.88;;;31.77;46.73
4024;BME280;2026;51.002;13.668;2023-06-22T10:16:31;99214.28;;;32.47;46.56
4024;BME280;2026;51.002;13.668;2023-06-22T10:21:35;99207.84;;;32.19;46.67
4024;BME280;2026;51.002;13.668;2023-06-22T10:26:39;99200.88;;;32.35;45.43
4024;BME280;2026;51.002;13.668;2023-06-22T10:31:41;99196.06;;;32.67;46.51
4024;BME280;2026;51.002;13.668;2023-06-22T10:36:46;99190.69;;;33.10;43.99
4024;BME280;2026;51.002;13.668;2023-06-22T10:41:50;99177.44;;;32.85;44.05
4024;BME280;2026;51.002;13.668;2023-06-22T10:46:53;99181.78;;;32.51;44.15
4024;BME280;2026;51.002;13.668;2023-06-22T10:52:00;99181.13;;;32.77;43.73
4024;BME280;2026;51.002;13.668;2023-06-22T10:57:04;99177.16;;;32.51;45.37
4024;BME280;2026;51.002;13.668;2023-06-22T11:02:07;99165.22;;;33.19;43.06
4024;BME280;2026;51.002;13.668;2023-06-22T11:07:11;99171.22;;;32.65;44.43
4024;BME280;2026;51.002;13.668;2023-06-22T11:12:14;99163.72;;;31.67;45.57
4024;BME280;2026;51.002;13.668;2023-06-22T11:17:17;99163.00;;;32.81;44.30
4024;BME280;2026;51.002;13.668;2023-06-22T11:22:22;99166.06;;;33.23;43.69
4024;BME280;2026;51.002;13.668;2023-06-22T11:27:25;99155.06;;;33.89;42.93
4024;BME280;2026;51.002;13.668;2023-06-22T11:32:27;99145.50;;;33.22;43.81
4024;BME280;2026;51.002;13.668;2023-06-22T11:37:32;99141.16;;;32.74;44.06
4024;BME280;2026;51.002;13.668;2023-06-22T11:42:35;99131.41;;;32.14;45.85
4024;BME280;2026;51.002;13.668;2023-06-22T11:47:38;99130.91;;;32.08;46.23
4024;BME280;2026;51.002;13.668;2023-06-22T11:52:43;99124.00;;;33.13;43.72
4024;BME280;2026;51.002;13.668;2023-06-22T11:57:54;99113.78;;;32.24;45.88
4024;BME280;2026;51.002;13.668;2023-06-22T12:02:57;99117.75;;;32.46;44.82
4024;BME280;2026;51.002;13.668;2023-06-22T12:08:03;99102.50;;;32.61;45.54
4024;BME280;2026;51.002;13.668;2023-06-22T12:13:06;99097.03;;;32.38;45.74
4024;BME280;2026;51.002;13.668;2023-06-22T12:18:09;99098.53;;;32.98;44.20
4024;BME280;2026;51.002;13.668;2023-06-22T12:23:14;99092.25;;;33.17;43.09
4024;BME280;2026;51.002;13.668;2023-06-22T12:28:17;99082.06;;;32.87;44.11
4024;BME280;2026;51.002;13.668;2023-06-22T12:33:20;99069.84;;;33.24;43.72
4024;BME280;2026;51.002;13.668;2023-06-22T12:38:24;99076.69;;;32.71;44.52
4024;BME280;2026;51.002;13.668;2023-06-22T12:43:27;99062.13;;;32.36;45.41
4024;BME280;2026;51.002;13.668;2023-06-22T12:48:30;99049.69;;;32.15;45.11
4024;BME280;2026;51.002;13.668;2023-06-22T12:53:35;99061.34;;;31.96;45.77
4024;BME280;2026;51.002;13.668;2023-06-22T12:58:38;99044.47;;;32.46;44.99
4024;BME280;2026;51.002;13.668;2023-06-22T13:03:42;99049.69;;;32.55;44.81
4024;BME280;2026;51.002;13.668;2023-06-22T13:08:46;99049.44;;;32.64;44.43
4024;BME280;2026;51.002;13.668;2023-06-22T13:13:52;99041.34;;;32.04;44.28
4024;BME280;2026;51.002;13.668;2023-06-22T13:18:55;99032.69;;;32.81;45.04
4024;BME280;2026;51.002;13.668;2023-06-22T13:23:59;99040.75;;;33.51;42.00
4024;BME280;2026;51.002;13.668;2023-06-22T13:29:02;99040.06;;;32.38;44.18
4024;BME280;2026;51.002;13.668;2023-06-22T13:34:05;99022.41;;;32.71;43.93
4024;BME280;2026;51.002;13.668;2023-06-22T13:39:09;99014.16;;;33.37;42.64
4024;BME280;2026;51.002;13.668;2023-06-22T13:44:12;99005.06;;;33.53;41.46
4024;BME280;2026;51.002;13.668;2023-06-22T13:49:15;98979.59;;;33.65;41.56
4024;BME280;2026;51.002;13.668;2023-06-22T13:54:20;98977.91;;;32.99;43.75
4024;BME280;2026;51.002;13.668;2023-06-22T13:59:31;98984.59;;;33.05;43.81
4024;BME280;2026;51.002;13.668;2023-06-22T14:04:34;98984.59;;;33.05;42.41
4024;BME280;2026;51.002;13.668;2023-06-22T14:09:38;98979.16;;;33.05;43.42
4024;BME280;2026;51.002;13.668;2023-06-22T14:14:41;98970.78;;;32.44;44.20
4024;BME280;2026;51.002;13.668;2023-06-22T14:19:44;98960.88;;;31.89;44.97
4024;BME280;2026;51.002;13.668;2023-06-22T14:24:49;98951.81;;;32.01;44.54
4024;BME280;2026;51.002;13.668;2023-06-22T14:29:52;98950.69;;;32.25;44.71
4024;BME280;2026;51.002;13.668;2023-06-22T14:34:55;98951.31;;;33.12;43.49
4024;BME280;2026;51.002;13.668;2023-06-22T14:39:59;98944.94;;;33.00;43.69
4024;BME280;2026;51.002;13.668;2023-06-22T14:45:02;98931.59;;;33.19;42.80
4024;BME280;2026;51.002;13.668;2023-06-22T14:50:06;98911.78;;;32.87;43.98
4024;BME280;2026;51.002;13.668;2023-06-22T14:55:10;98901.00;;;32.95;42.87
4024;BME280;2026;51.002;13.668;2023-06-22T15:00:14;98894.13;;;33.01;42.36
4024;BME280;2026;51.002;13.668;2023-06-22T15:05:17;98886.88;;;33.09;42.97
4024;BME280;2026;51.002;13.668;2023-06-22T15:10:21;98890.09;;;32.91;42.57
4024;BME280;2026;51.002;13.668;2023-06-22T15:15:24;98898.03;;;33.04;42.82
4024;BME280;2026;51.002;13.668;2023-06-22T15:20:27;98883.03;;;33.13;42.07
4024;BME280;2026;51.002;13.668;2023-06-22T15:25:32;98869.63;;;33.28;42.35
4024;BME280;2026;51.002;13.668;2023-06-22T15:30:35;98866.09;;;33.24;42.29
4024;BME280;2026;51.002;13.668;2023-06-22T15:35:38;98856.09;;;32.47;44.27
4024;BME280;2026;51.002;13.668;2023-06-22T15:40:43;98843.19;;;32.67;43.38
4024;BME280;2026;51.002;13.668;2023-06-22T15:45:46;98836.81;;;33.10;43.43
4024;BME280;2026;51.002;13.668;2023-06-22T15:50:51;98827.81;;;32.75;43.99
4024;BME280;2026;51.002;13.668;2023-06-22T15:55:55;98813.22;;;32.29;45.07
4024;BME280;2026;51.002;13.668;2023-06-22T16:00:58;98818.56;;;32.80;44.24
4024;BME280;2026;51.002;13.668;2023-06-22T16:06:01;98822.81;;;32.50;44.38
4024;BME280;2026;51.002;13.668;2023-06-22T16:11:05;98808.25;;;32.62;45.36
4024;BME280;2026;51.002;13.668;2023-06-22T16:16:08;98800.94;;;31.89;47.21
4024;BME280;2026;51.002;13.668;2023-06-22T16:21:11;98797.97;;;31.55;47.62
4024;BME280;2026;51.002;13.668;2023-06-22T16:26:16;98796.13;;;31.59;47.93
4024;BME280;2026;51.002;13.668;2023-06-22T16:31:19;98794.00;;;31.68;47.80
4024;BME280;2026;51.002;13.668;2023-06-22T16:36:22;98809.88;;;32.16;47.57
4024;BME280;2026;51.002;13.668;2023-06-22T16:41:26;98808.63;;;32.10;48.65
4024;BME280;2026;51.002;13.668;2023-06-22T16:46:31;98802.09;;;32.15;47.85
4024;BME280;2026;51.002;13.668;2023-06-22T16:51:34;98790.38;;;31.84;49.77
4024;BME280;2026;51.002;13.668;2023-06-22T16:56:39;98778.25;;;31.77;49.19
4024;BME280;2026;51.002;13.668;2023-06-22T17:01:50;98763.31;;;32.11;49.46
4024;BME280;2026;51.002;13.668;2023-06-22T17:06:58;98760.44;;;31.76;50.28
4024;BME280;2026;51.002;13.668;2023-06-22T17:12:03;98753.97;;;31.61;50.75
4024;BME280;2026;51.002;13.668;2023-06-22T17:17:07;98729.47;;;31.77;50.23
4024;BME280;2026;51.002;13.668;2023-06-22T17:22:11;98716.69;;;31.55;52.10
4024;BME280;2026;51.002;13.668;2023-06-22T17:27:26;98716.41;;;31.60;52.21
4024;BME280;2026;51.002;13.668;2023-06-22T17:32:30;98714.75;;;31.32;53.97
4024;BME280;2026;51.002;13.668;2023-06-22T17:37:35;98705.53;;;30.93;54.28
4024;BME280;2026;51.002;13.668;2023-06-22T17:42:50;98693.38;;;30.83;54.61
4024;BME280;2026;51.002;13.668;2023-06-22T17:47:54;98684.97;;;30.33;56.31
4024;BME280;2026;51.002;13.668;2023-06-22T17:52:57;98686.28;;;30.39;56.89
4024;BME280;2026;51.002;13.668;2023-06-22T17:58:01;98687.22;;;30.11;57.83
4024;BME280;2026;51.002;13.668;2023-06-22T18:03:04;98663.88;;;29.87;58.67
4024;BME280;2026;51.002;13.668;2023-06-22T18:08:07;98646.38;;;29.65;59.25
4024;BME280;2026;51.002;13.668;2023-06-22T18:13:12;98643.41;;;29.38;60.35
4024;BME280;2026;51.002;13.668;2023-06-22T18:18:16;98646.13;;;28.93;61.47
4024;BME280;2026;51.002;13.668;2023-06-22T18:23:20;98656.00;;;28.89;61.57
4024;BME280;2026;51.002;13.668;2023-06-22T18:28:25;98637.44;;;28.71;62.11
4024;BME280;2026;51.002;13.668;2023-06-22T18:33:29;98635.38;;;28.81;62.15
4024;BME280;2026;51.002;13.668;2023-06-22T18:38:32;98625.31;;;28.65;62.27
4024;BME280;2026;51.002;13.668;2023-06-22T18:43:38;98626.94;;;28.41;62.73
4024;BME280;2026;51.002;13.668;2023-06-22T18:48:41;98631.09;;;28.51;62.87
4024;BME280;2026;51.002;13.668;2023-06-22T18:54:02;98627.53;;;28.34;63.97
4024;BME280;2026;51.002;13.668;2023-06-22T18:59:11;98640.00;;;28.27;63.99
4024;BME280;2026;51.002;13.668;2023-06-22T19:04:15;98634.88;;;28.21;64.42
4024;BME280;2026;51.002;13.668;2023-06-22T19:09:18;98637.38;;;28.14;65.11
4024;BME280;2026;51.002;13.668;2023-06-22T19:14:23;98647.28;;;27.98;65.67
4024;BME280;2026;51.002;13.668;2023-06-22T19:19:26;98647.22;;;27.73;66.76
4024;BME280;2026;51.002;13.668;2023-06-22T19:24:29;98645.44;;;27.52;67.76
4024;BME280;2026;51.002;13.668;2023-06-22T19:29:34;98635.56;;;27.44;68.10
4024;BME280;2026;51.002;13.668;2023-06-22T19:34:41;98628.84;;;27.50;67.88
4024;BME280;2026;51.002;13.668;2023-06-22T19:39:47;98604.13;;;27.48;67.76
4024;BME280;2026;51.002;13.668;2023-06-22T19:45:00;98598.44;;;27.49;67.34
4024;BME280;2026;51.002;13.668;2023-06-22T19:50:05;98608.19;;;27.29;68.30
4024;BME280;2026;51.002;13.668;2023-06-22T19:55:09;98600.03;;;27.17;68.87
4024;BME280;2026;51.002;13.668;2023-06-22T20:00:21;98576.19;;;27.15;68.77
4024;BME280;2026;51.002;13.668;2023-06-22T20:05:24;98570.97;;;26.97;69.38
4024;BME280;2026;51.002;13.668;2023-06-22T20:10:27;98593.72;;;26.87;69.64
4024;BME280;2026;51.002;13.668;2023-06-22T20:15:39;98576.78;;;26.53;71.93
4024;BME280;2026;51.002;13.668;2023-06-22T20:20:44;98551.75;;;26.74;70.44
4024;BME280;2026;51.002;13.668;2023-06-22T20:25:47;98523.88;;;26.45;71.82
4024;BME280;2026;51.002;13.668;2023-06-22T20:31:03;98527.53;;;26.62;71.36
4024;BME280;2026;51.002;13.668;2023-06-22T20:36:07;98529.91;;;26.42;71.87
4024;BME280;2026;51.002;13.668;2023-06-22T20:41:12;98524.28;;;26.35;72.97
4024;BME280;2026;51.002;13.668;2023-06-22T20:46:18;98529.22;;;26.32;72.98
4024;BME280;2026;51.002;13.668;2023-06-22T20:51:21;98491.47;;;26.41;72.58
4024;BME280;2026;51.002;13.668;2023-06-22T20:56:26;98480.78;;;26.20;73.51
4024;BME280;2026;51.002;13.668;2023-06-22T21:01:30;98496.19;;;26.11;74.34
4024;BME280;2026;51.002;13.668;2023-06-22T21:06:34;98496.50;;;26.09;74.36
4024;BME280;2026;51.002;13.668;2023-06-22T21:11:38;98490.38;;;26.09;74.36
4024;BME280;2026;51.002;13.668;2023-06-22T21:16:42;98524.03;;;26.27;73.84
4024;BME280;2026;51.002;13.668;2023-06-22T21:21:45;98541.84;;;26.32;74.76
4024;BME280;2026;51.002;13.668;2023-06-22T21:26:48;98540.03;;;26.24;77.06
4024;BME280;2026;51.002;13.668;2023-06-22T21:31:53;98563.50;;;25.93;82.34
4024;BME280;2026;51.002;13.668;2023-06-22T21:36:56;98570.16;;;25.87;84.87
4024;BME280;2026;51.002;13.668;2023-06-22T21:41:59;98506.69;;;25.52;85.66
4024;BME280;2026;51.002;13.668;2023-06-22T21:47:04;98514.47;;;25.45;84.75
4024;BME280;2026;51.002;13.668;2023-06-22T21:52:07;98506.50;;;25.27;91.01
4024;BME280;2026;51.002;13.668;2023-06-22T21:57:10;98501.16;;;25.27;91.68
4024;BME280;2026;51.002;13.668;2023-06-22T22:02:15;98551.78;;;25.29;89.19
4024;BME280;2026;51.002;13.668;2023-06-22T22:07:18;98589.25;;;25.16;92.39
4024;BME280;2026;51.002;13.668;2023-06-22T22:12:21;98606.44;;;25.15;93.30
4024;BME280;2026;51.002;13.668;2023-06-22T22:17:25;98614.00;;;25.13;93.18
4024;BME280;2026;51.002;13.668;2023-06-22T22:22:29;98629.19;;;25.09;95.01
4024;BME280;2026;51.002;13.668;2023-06-22T22:27:32;98619.22;;;25.09;94.02
4024;BME280;2026;51.002;13.668;2023-06-22T22:32:37;98650.00;;;24.94;94.05
4024;BME280;2026;51.002;13.668;2023-06-22T22:37:40;98654.09;;;24.83;95.51
4024;BME280;2026;51.002;13.668;2023-06-22T22:42:43;98650.50;;;24.61;96.37
4024;BME280;2026;51.002;13.668;2023-06-22T22:47:47;98644.19;;;24.66;96.33
4024;BME280;2026;51.002;13.668;2023-06-22T22:52:50;98663.47;;;24.19;95.35
4024;BME280;2026;51.002;13.668;2023-06-22T22:57:53;98702.66;;;23.65;100.00
4024;BME280;2026;51.002;13.668;2023-06-22T23:02:58;98754.53;;;23.78;98.40
4024;BME280;2026;51.002;13.668;2023-06-22T23:08:03;98868.22;;;22.65;97.92
4024;BME280;2026;51.002;13.668;2023-06-22T23:13:08;98911.59;;;22.29;95.49
4024;BME280;2026;51.002;13.668;2023-06-22T23:18:13;98889.81;;;21.50;98.25
4024;BME280;2026;51.002;13.668;2023-06-22T23:23:16;98946.91;;;21.49;98.49
4024;BME280;2026;51.002;13.668;2023-06-22T23:28:19;98968.50;;;21.28;99.12
4024;BME280;2026;51.002;13.668;2023-06-22T23:33:39;98919.16;;;21.50;97.75
4024;BME280;2026;51.002;13.668;2023-06-22T23:38:42;98891.34;;;21.56;98.34
4024;BME280;2026;51.002;13.668;2023-06-22T23:43:45;98875.66;;;21.30;97.94
4024;BME280;2026;51.002;13.668;2023-06-22T23:48:49;98896.06;;;21.40;98.91
4024;BME280;2026;51.002;13.668;2023-06-22T23:53:52;98874.25;;;21.57;98.36
4024;BME280;2026;51.002;13.668;2023-06-22T23:58:55;98860.81;;;21.62;96.54
